sensor_id;sensor_type;location;lat;lon;timestamp;P1;durP1;ratioP1;P2;durP2;ratioP2
22193;SDS011;11262;50.308;9.270;2022-10-17T00:00:48;11.53;;;5.20;;
22193;SDS011;11262;50.308;9.270;2022-10-17T00:03:14;11.07;;;5.07;;
22193;SDS011;11262;50.308;9.270;2022-10-17T00:05:44;10.13;;;4.70;;
22193;SDS011;11262;50.308;9.270;2022-10-17T00:08:12;10.07;;;4.57;;
22193;SDS011;11262;50.308;9.270;2022-10-17T00:10:39;6.77;;;4.30;;
22193;SDS011;11262;50.308;9.270;2022-10-17T00:13:05;11.83;;;3.87;;
22193;SDS011;11262;50.308;9.270;2022-10-17T00:15:31;10.90;;;3.93;;
22193;SDS011;11262;50.308;9.270;2022-10-17T00:17:57;5.93;;;3.50;;
22193;SDS011;11262;50.308;9.270;2022-10-17T00:20:23;9.23;;;3.70;;
22193;SDS011;11262;50.308;9.270;2022-10-17T00:22:48;5.73;;;3.60;;
22193;SDS011;11262;50.308;9.270;2022-10-17T00:25:14;7.90;;;3.50;;
22193;SDS011;11262;50.308;9.270;2022-10-17T00:27:40;8.40;;;3.77;;
22193;SDS011;11262;50.308;9.270;2022-10-17T00:30:07;10.53;;;4.60;;
22193;SDS011;11262;50.308;9.270;2022-10-17T00:32:35;4.73;;;3.53;;
22193;SDS011;11262;50.308;9.270;2022-10-17T00:35:01;6.17;;;3.60;;
22193;SDS011;11262;50.308;9.270;2022-10-17T00:37:28;6.23;;;3.57;;
22193;SDS011;11262;50.308;9.270;2022-10-17T00:39:55;7.30;;;4.00;;
22193;SDS011;11262;50.308;9.270;2022-10-17T00:42:20;7.97;;;3.67;;
22193;SDS011;11262;50.308;9.270;2022-10-17T00:47:15;7.83;;;3.40;;
22193;SDS011;11262;50.308;9.270;2022-10-17T00:49:43;6.87;;;3.60;;
22193;SDS011;11262;50.308;9.270;2022-10-17T00:52:43;6.57;;;3.57;;
22193;SDS011;11262;50.308;9.270;2022-10-17T00:55:07;4.77;;;3.40;;
22193;SDS011;11262;50.308;9.270;2022-10-17T00:57:37;9.37;;;3.73;;
22193;SDS011;11262;50.308;9.270;2022-10-17T01:00:05;9.73;;;3.83;;
22193;SDS011;11262;50.308;9.270;2022-10-17T01:02:32;4.90;;;3.43;;
22193;SDS011;11262;50.308;9.270;2022-10-17T01:04:58;8.60;;;3.70;;
22193;SDS011;11262;50.308;9.270;2022-10-17T01:07:26;6.30;;;3.60;;
22193;SDS011;11262;50.308;9.270;2022-10-17T01:09:53;6.37;;;3.70;;
22193;SDS011;11262;50.308;9.270;2022-10-17T01:17:39;5.97;;;3.60;;
22193;SDS011;11262;50.308;9.270;2022-10-17T01:26:14;7.83;;;3.80;;
22193;SDS011;11262;50.308;9.270;2022-10-17T01:31:36;11.27;;;4.47;;
22193;SDS011;11262;50.308;9.270;2022-10-17T01:34:04;9.57;;;5.03;;
22193;SDS011;11262;50.308;9.270;2022-10-17T01:42:18;10.10;;;4.47;;
22193;SDS011;11262;50.308;9.270;2022-10-17T01:47:28;13.73;;;4.00;;
22193;SDS011;11262;50.308;9.270;2022-10-17T01:49:58;8.27;;;3.87;;
22193;SDS011;11262;50.308;9.270;2022-10-17T01:52:36;7.33;;;4.10;;
22193;SDS011;11262;50.308;9.270;2022-10-17T01:57:37;8.67;;;4.17;;
22193;SDS011;11262;50.308;9.270;2022-10-17T02:00:08;7.17;;;4.10;;
22193;SDS011;11262;50.308;9.270;2022-10-17T02:02:37;9.27;;;4.03;;
22193;SDS011;11262;50.308;9.270;2022-10-17T02:05:05;9.03;;;4.03;;
22193;SDS011;11262;50.308;9.270;2022-10-17T02:07:32;10.90;;;4.00;;
22193;SDS011;11262;50.308;9.270;2022-10-17T02:09:58;8.37;;;3.80;;
22193;SDS011;11262;50.308;9.270;2022-10-17T02:15:27;8.27;;;4.03;;
22193;SDS011;11262;50.308;9.270;2022-10-17T02:20:50;10.33;;;4.30;;
22193;SDS011;11262;50.308;9.270;2022-10-17T02:25:54;5.93;;;3.83;;
22193;SDS011;11262;50.308;9.270;2022-10-17T02:28:33;4.73;;;4.10;;
22193;SDS011;11262;50.308;9.270;2022-10-17T02:31:31;9.27;;;3.77;;
22193;SDS011;11262;50.308;9.270;2022-10-17T02:34:15;7.10;;;4.33;;
22193;SDS011;11262;50.308;9.270;2022-10-17T02:36:49;7.27;;;3.80;;
22193;SDS011;11262;50.308;9.270;2022-10-17T02:39:18;8.23;;;4.20;;
22193;SDS011;11262;50.308;9.270;2022-10-17T02:41:46;8.77;;;3.93;;
22193;SDS011;11262;50.308;9.270;2022-10-17T02:44:13;12.83;;;4.70;;
22193;SDS011;11262;50.308;9.270;2022-10-17T02:46:40;12.23;;;4.57;;
22193;SDS011;11262;50.308;9.270;2022-10-17T02:49:25;7.77;;;4.40;;
22193;SDS011;11262;50.308;9.270;2022-10-17T02:52:00;11.20;;;4.40;;
22193;SDS011;11262;50.308;9.270;2022-10-17T02:54:38;10.20;;;4.60;;
22193;SDS011;11262;50.308;9.270;2022-10-17T02:57:17;9.50;;;5.00;;
22193;SDS011;11262;50.308;9.270;2022-10-17T02:59:47;9.17;;;5.80;;
22193;SDS011;11262;50.308;9.270;2022-10-17T03:02:14;17.73;;;4.60;;
22193;SDS011;11262;50.308;9.270;2022-10-17T03:04:43;7.77;;;4.60;;
22193;SDS011;11262;50.308;9.270;2022-10-17T03:07:10;14.07;;;4.70;;
22193;SDS011;11262;50.308;9.270;2022-10-17T03:09:35;7.73;;;4.30;;
22193;SDS011;11262;50.308;9.270;2022-10-17T03:12:01;7.03;;;4.00;;
22193;SDS011;11262;50.308;9.270;2022-10-17T03:14:27;8.27;;;4.23;;
22193;SDS011;11262;50.308;9.270;2022-10-17T03:16:52;8.07;;;4.43;;
22193;SDS011;11262;50.308;9.270;2022-10-17T03:19:18;10.23;;;4.53;;
22193;SDS011;11262;50.308;9.270;2022-10-17T03:21:43;12.73;;;4.80;;
22193;SDS011;11262;50.308;9.270;2022-10-17T03:24:09;10.30;;;4.20;;
22193;SDS011;11262;50.308;9.270;2022-10-17T03:26:34;6.67;;;4.07;;
22193;SDS011;11262;50.308;9.270;2022-10-17T03:29:00;10.83;;;4.10;;
22193;SDS011;11262;50.308;9.270;2022-10-17T03:31:26;8.80;;;4.27;;
22193;SDS011;11262;50.308;9.270;2022-10-17T03:33:51;9.83;;;4.23;;
22193;SDS011;11262;50.308;9.270;2022-10-17T03:36:17;7.90;;;4.33;;
22193;SDS011;11262;50.308;9.270;2022-10-17T03:38:44;12.77;;;5.20;;
22193;SDS011;11262;50.308;9.270;2022-10-17T03:41:10;9.10;;;4.43;;
22193;SDS011;11262;50.308;9.270;2022-10-17T03:43:36;11.17;;;5.07;;
22193;SDS011;11262;50.308;9.270;2022-10-17T03:46:03;12.90;;;4.80;;
22193;SDS011;11262;50.308;9.270;2022-10-17T03:48:30;13.07;;;4.40;;
22193;SDS011;11262;50.308;9.270;2022-10-17T03:50:59;9.63;;;5.07;;
22193;SDS011;11262;50.308;9.270;2022-10-17T03:53:29;11.73;;;4.97;;
22193;SDS011;11262;50.308;9.270;2022-10-17T03:55:55;9.17;;;4.87;;
22193;SDS011;11262;50.308;9.270;2022-10-17T03:58:21;9.10;;;4.60;;
22193;SDS011;11262;50.308;9.270;2022-10-17T04:00:47;8.97;;;4.60;;
22193;SDS011;11262;50.308;9.270;2022-10-17T04:03:13;8.47;;;4.60;;
22193;SDS011;11262;50.308;9.270;2022-10-17T04:05:38;12.33;;;4.70;;
22193;SDS011;11262;50.308;9.270;2022-10-17T04:08:04;11.70;;;4.70;;
22193;SDS011;11262;50.308;9.270;2022-10-17T04:10:29;9.27;;;5.37;;
22193;SDS011;11262;50.308;9.270;2022-10-17T04:12:55;9.13;;;5.10;;
22193;SDS011;11262;50.308;9.270;2022-10-17T04:15:21;9.37;;;4.57;;
22193;SDS011;11262;50.308;9.270;2022-10-17T04:17:46;9.67;;;4.43;;
22193;SDS011;11262;50.308;9.270;2022-10-17T04:20:12;13.90;;;5.10;;
22193;SDS011;11262;50.308;9.270;2022-10-17T04:22:37;9.87;;;4.87;;
22193;SDS011;11262;50.308;9.270;2022-10-17T04:25:03;9.40;;;4.40;;
22193;SDS011;11262;50.308;9.270;2022-10-17T04:27:29;10.60;;;5.03;;
22193;SDS011;11262;50.308;9.270;2022-10-17T04:29:54;11.80;;;4.80;;
22193;SDS011;11262;50.308;9.270;2022-10-17T04:32:20;12.40;;;5.13;;
22193;SDS011;11262;50.308;9.270;2022-10-17T04:34:49;8.60;;;4.53;;
22193;SDS011;11262;50.308;9.270;2022-10-17T04:37:14;8.70;;;4.63;;
22193;SDS011;11262;50.308;9.270;2022-10-17T04:39:40;9.60;;;5.00;;
22193;SDS011;11262;50.308;9.270;2022-10-17T04:42:06;10.27;;;4.80;;
22193;SDS011;11262;50.308;9.270;2022-10-17T04:44:31;9.90;;;5.90;;
22193;SDS011;11262;50.308;9.270;2022-10-17T04:46:58;11.27;;;5.37;;
22193;SDS011;11262;50.308;9.270;2022-10-17T04:49:23;10.00;;;5.33;;
22193;SDS011;11262;50.308;9.270;2022-10-17T04:51:49;12.37;;;5.67;;
22193;SDS011;11262;50.308;9.270;2022-10-17T04:54:14;12.17;;;5.47;;
22193;SDS011;11262;50.308;9.270;2022-10-17T04:56:40;9.67;;;5.30;;
22193;SDS011;11262;50.308;9.270;2022-10-17T04:59:06;9.23;;;5.47;;
22193;SDS011;11262;50.308;9.270;2022-10-17T05:01:31;12.50;;;5.57;;
22193;SDS011;11262;50.308;9.270;2022-10-17T05:03:57;7.40;;;4.53;;
22193;SDS011;11262;50.308;9.270;2022-10-17T05:06:23;13.60;;;5.10;;
22193;SDS011;11262;50.308;9.270;2022-10-17T05:08:50;10.50;;;5.17;;
22193;SDS011;11262;50.308;9.270;2022-10-17T05:11:22;10.93;;;5.00;;
22193;SDS011;11262;50.308;9.270;2022-10-17T05:13:54;12.17;;;5.47;;
22193;SDS011;11262;50.308;9.270;2022-10-17T05:16:24;12.83;;;6.37;;
22193;SDS011;11262;50.308;9.270;2022-10-17T05:18:51;12.83;;;6.93;;
22193;SDS011;11262;50.308;9.270;2022-10-17T05:21:19;10.57;;;5.50;;
22193;SDS011;11262;50.308;9.270;2022-10-17T05:23:45;10.40;;;5.00;;
22193;SDS011;11262;50.308;9.270;2022-10-17T05:26:11;7.87;;;4.63;;
22193;SDS011;11262;50.308;9.270;2022-10-17T05:28:37;8.27;;;4.60;;
22193;SDS011;11262;50.308;9.270;2022-10-17T05:31:03;11.97;;;5.97;;
22193;SDS011;11262;50.308;9.270;2022-10-17T05:33:30;11.20;;;5.13;;
22193;SDS011;11262;50.308;9.270;2022-10-17T05:35:55;10.00;;;5.03;;
22193;SDS011;11262;50.308;9.270;2022-10-17T05:38:22;13.80;;;5.90;;
22193;SDS011;11262;50.308;9.270;2022-10-17T05:40:47;9.20;;;4.90;;
22193;SDS011;11262;50.308;9.270;2022-10-17T05:43:13;12.67;;;5.03;;
22193;SDS011;11262;50.308;9.270;2022-10-17T05:45:39;8.70;;;5.43;;
22193;SDS011;11262;50.308;9.270;2022-10-17T05:48:05;11.07;;;5.83;;
22193;SDS011;11262;50.308;9.270;2022-10-17T05:50:31;8.17;;;5.20;;
22193;SDS011;11262;50.308;9.270;2022-10-17T05:52:56;11.33;;;4.83;;
22193;SDS011;11262;50.308;9.270;2022-10-17T05:55:22;12.87;;;5.60;;
22193;SDS011;11262;50.308;9.270;2022-10-17T05:57:48;12.73;;;5.97;;
22193;SDS011;11262;50.308;9.270;2022-10-17T06:00:14;14.37;;;5.17;;
22193;SDS011;11262;50.308;9.270;2022-10-17T06:02:40;9.60;;;5.40;;
22193;SDS011;11262;50.308;9.270;2022-10-17T06:05:07;11.13;;;5.80;;
22193;SDS011;11262;50.308;9.270;2022-10-17T06:07:33;27.67;;;13.43;;
22193;SDS011;11262;50.308;9.270;2022-10-17T06:09:59;23.57;;;10.87;;
22193;SDS011;11262;50.308;9.270;2022-10-17T06:12:25;32.63;;;15.37;;
22193;SDS011;11262;50.308;9.270;2022-10-17T06:14:51;43.50;;;22.93;;
22193;SDS011;11262;50.308;9.270;2022-10-17T06:17:16;87.60;;;59.63;;
22193;SDS011;11262;50.308;9.270;2022-10-17T06:19:42;56.07;;;36.03;;
22193;SDS011;11262;50.308;9.270;2022-10-17T06:22:08;81.83;;;55.77;;
22193;SDS011;11262;50.308;9.270;2022-10-17T06:24:34;78.67;;;55.03;;
22193;SDS011;11262;50.308;9.270;2022-10-17T06:26:59;79.70;;;55.20;;
22193;SDS011;11262;50.308;9.270;2022-10-17T06:29:25;59.40;;;40.93;;
22193;SDS011;11262;50.308;9.270;2022-10-17T06:31:51;32.70;;;18.53;;
22193;SDS011;11262;50.308;9.270;2022-10-17T06:34:16;29.93;;;16.10;;
22193;SDS011;11262;50.308;9.270;2022-10-17T06:36:42;28.67;;;15.17;;
22193;SDS011;11262;50.308;9.270;2022-10-17T06:39:08;26.37;;;12.77;;
22193;SDS011;11262;50.308;9.270;2022-10-17T06:41:34;20.77;;;9.20;;
22193;SDS011;11262;50.308;9.270;2022-10-17T06:43:59;20.57;;;9.53;;
22193;SDS011;11262;50.308;9.270;2022-10-17T06:46:25;20.53;;;9.77;;
22193;SDS011;11262;50.308;9.270;2022-10-17T06:48:53;20.42;;;8.82;;
22193;SDS011;11262;50.308;9.270;2022-10-17T06:51:19;21.23;;;9.23;;
22193;SDS011;11262;50.308;9.270;2022-10-17T06:53:44;18.60;;;8.90;;
22193;SDS011;11262;50.308;9.270;2022-10-17T06:56:11;14.10;;;8.00;;
22193;SDS011;11262;50.308;9.270;2022-10-17T06:58:37;19.13;;;7.57;;
22193;SDS011;11262;50.308;9.270;2022-10-17T07:01:05;15.13;;;7.47;;
22193;SDS011;11262;50.308;9.270;2022-10-17T07:03:32;15.33;;;6.50;;
22193;SDS011;11262;50.308;9.270;2022-10-17T07:05:58;16.80;;;7.10;;
22193;SDS011;11262;50.308;9.270;2022-10-17T07:08:24;12.37;;;6.23;;
22193;SDS011;11262;50.308;9.270;2022-10-17T07:10:50;12.83;;;6.33;;
22193;SDS011;11262;50.308;9.270;2022-10-17T07:13:16;12.33;;;6.60;;
22193;SDS011;11262;50.308;9.270;2022-10-17T07:15:42;13.63;;;6.20;;
22193;SDS011;11262;50.308;9.270;2022-10-17T07:18:08;10.33;;;5.27;;
22193;SDS011;11262;50.308;9.270;2022-10-17T07:20:33;12.07;;;5.97;;
22193;SDS011;11262;50.308;9.270;2022-10-17T07:22:59;10.83;;;5.63;;
22193;SDS011;11262;50.308;9.270;2022-10-17T07:25:25;7.67;;;5.03;;
22193;SDS011;11262;50.308;9.270;2022-10-17T07:27:51;15.90;;;5.77;;
22193;SDS011;11262;50.308;9.270;2022-10-17T07:30:17;11.70;;;5.40;;
22193;SDS011;11262;50.308;9.270;2022-10-17T07:32:43;10.73;;;4.97;;
22193;SDS011;11262;50.308;9.270;2022-10-17T07:35:09;11.50;;;5.20;;
22193;SDS011;11262;50.308;9.270;2022-10-17T07:37:36;8.77;;;5.55;;
22193;SDS011;11262;50.308;9.270;2022-10-17T07:40:04;10.97;;;5.17;;
22193;SDS011;11262;50.308;9.270;2022-10-17T07:42:31;10.60;;;4.70;;
22193;SDS011;11262;50.308;9.270;2022-10-17T07:44:57;8.87;;;5.33;;
22193;SDS011;11262;50.308;9.270;2022-10-17T07:47:23;11.40;;;5.00;;
22193;SDS011;11262;50.308;9.270;2022-10-17T07:49:48;7.23;;;4.43;;
22193;SDS011;11262;50.308;9.270;2022-10-17T07:52:14;6.90;;;4.30;;
22193;SDS011;11262;50.308;9.270;2022-10-17T07:54:41;8.77;;;5.00;;
22193;SDS011;11262;50.308;9.270;2022-10-17T07:57:07;8.03;;;4.33;;
22193;SDS011;11262;50.308;9.270;2022-10-17T07:59:33;10.53;;;3.83;;
22193;SDS011;11262;50.308;9.270;2022-10-17T08:02:00;6.70;;;4.10;;
22193;SDS011;11262;50.308;9.270;2022-10-17T08:04:26;9.93;;;4.67;;
22193;SDS011;11262;50.308;9.270;2022-10-17T08:06:52;10.27;;;4.30;;
22193;SDS011;11262;50.308;9.270;2022-10-17T08:09:18;8.40;;;4.30;;
22193;SDS011;11262;50.308;9.270;2022-10-17T08:11:44;13.03;;;3.97;;
22193;SDS011;11262;50.308;9.270;2022-10-17T08:14:10;10.50;;;3.83;;
22193;SDS011;11262;50.308;9.270;2022-10-17T08:16:36;7.23;;;3.90;;
22193;SDS011;11262;50.308;9.270;2022-10-17T08:19:02;8.90;;;4.20;;
22193;SDS011;11262;50.308;9.270;2022-10-17T08:21:28;5.30;;;4.17;;
22193;SDS011;11262;50.308;9.270;2022-10-17T08:23:54;8.63;;;4.43;;
22193;SDS011;11262;50.308;9.270;2022-10-17T08:26:19;9.70;;;4.13;;
22193;SDS011;11262;50.308;9.270;2022-10-17T08:28:45;6.43;;;3.83;;
22193;SDS011;11262;50.308;9.270;2022-10-17T08:31:12;7.37;;;3.93;;
22193;SDS011;11262;50.308;9.270;2022-10-17T08:33:42;6.57;;;3.83;;
22193;SDS011;11262;50.308;9.270;2022-10-17T08:36:07;10.33;;;3.93;;
22193;SDS011;11262;50.308;9.270;2022-10-17T08:38:34;11.20;;;4.00;;
22193;SDS011;11262;50.308;9.270;2022-10-17T08:41:02;8.60;;;3.80;;
22193;SDS011;11262;50.308;9.270;2022-10-17T08:45:59;7.03;;;3.87;;
22193;SDS011;11262;50.308;9.270;2022-10-17T08:48:30;7.37;;;3.80;;
22193;SDS011;11262;50.308;9.270;2022-10-17T08:51:06;7.37;;;3.60;;
22193;SDS011;11262;50.308;9.270;2022-10-17T08:56:19;4.57;;;3.50;;
22193;SDS011;11262;50.308;9.270;2022-10-17T08:58:47;7.30;;;3.90;;
22193;SDS011;11262;50.308;9.270;2022-10-17T09:09:20;5.03;;;3.40;;
22193;SDS011;11262;50.308;9.270;2022-10-17T09:12:01;7.03;;;3.33;;
22193;SDS011;11262;50.308;9.270;2022-10-17T09:20:09;12.27;;;3.63;;
22193;SDS011;11262;50.308;9.270;2022-10-17T09:22:43;12.67;;;3.50;;
22193;SDS011;11262;50.308;9.270;2022-10-17T09:25:21;11.27;;;3.90;;
22193;SDS011;11262;50.308;9.270;2022-10-17T09:27:51;6.80;;;3.43;;
22193;SDS011;11262;50.308;9.270;2022-10-17T09:30:37;10.20;;;3.47;;
22193;SDS011;11262;50.308;9.270;2022-10-17T09:33:46;12.93;;;3.88;;
22193;SDS011;11262;50.308;9.270;2022-10-17T09:36:18;5.30;;;3.00;;
22193;SDS011;11262;50.308;9.270;2022-10-17T09:38:56;7.17;;;3.30;;
22193;SDS011;11262;50.308;9.270;2022-10-17T09:41:29;7.47;;;3.60;;
22193;SDS011;11262;50.308;9.270;2022-10-17T09:44:36;6.63;;;3.43;;
22193;SDS011;11262;50.308;9.270;2022-10-17T09:49:37;6.20;;;3.30;;
22193;SDS011;11262;50.308;9.270;2022-10-17T09:52:05;5.63;;;3.10;;
22193;SDS011;11262;50.308;9.270;2022-10-17T09:57:23;9.63;;;3.37;;
22193;SDS011;11262;50.308;9.270;2022-10-17T09:59:59;6.90;;;3.30;;
22193;SDS011;11262;50.308;9.270;2022-10-17T10:02:27;7.13;;;3.50;;
22193;SDS011;11262;50.308;9.270;2022-10-17T10:05:36;5.57;;;3.00;;
22193;SDS011;11262;50.308;9.270;2022-10-17T10:07:59;5.93;;;3.13;;
22193;SDS011;11262;50.308;9.270;2022-10-17T10:10:42;8.50;;;3.63;;
22193;SDS011;11262;50.308;9.270;2022-10-17T10:15:37;13.93;;;3.60;;
22193;SDS011;11262;50.308;9.270;2022-10-17T10:21:01;6.20;;;3.30;;
22193;SDS011;11262;50.308;9.270;2022-10-17T10:24:26;9.40;;;3.07;;
22193;SDS011;11262;50.308;9.270;2022-10-17T10:31:48;9.80;;;3.20;;
22193;SDS011;11262;50.308;9.270;2022-10-17T10:34:25;5.97;;;3.10;;
22193;SDS011;11262;50.308;9.270;2022-10-17T10:37:02;10.03;;;3.30;;
22193;SDS011;11262;50.308;9.270;2022-10-17T10:39:47;10.47;;;3.43;;
22193;SDS011;11262;50.308;9.270;2022-10-17T10:42:20;5.30;;;3.40;;
22193;SDS011;11262;50.308;9.270;2022-10-17T10:44:46;5.67;;;3.30;;
22193;SDS011;11262;50.308;9.270;2022-10-17T10:49:42;6.00;;;3.00;;
22193;SDS011;11262;50.308;9.270;2022-10-17T10:52:10;13.07;;;3.20;;
22193;SDS011;11262;50.308;9.270;2022-10-17T10:54:42;5.10;;;3.00;;
22193;SDS011;11262;50.308;9.270;2022-10-17T10:57:21;3.43;;;3.00;;
22193;SDS011;11262;50.308;9.270;2022-10-17T11:02:25;4.37;;;2.90;;
22193;SDS011;11262;50.308;9.270;2022-10-17T11:07:42;8.40;;;2.97;;
22193;SDS011;11262;50.308;9.270;2022-10-17T11:13:03;10.10;;;3.27;;
22193;SDS011;11262;50.308;9.270;2022-10-17T11:15:46;5.23;;;2.67;;
22193;SDS011;11262;50.308;9.270;2022-10-17T11:23:47;13.37;;;2.87;;
22193;SDS011;11262;50.308;9.270;2022-10-17T11:26:39;8.87;;;3.00;;
22193;SDS011;11262;50.308;9.270;2022-10-17T11:29:09;8.27;;;3.03;;
22193;SDS011;11262;50.308;9.270;2022-10-17T11:31:38;7.07;;;3.30;;
22193;SDS011;11262;50.308;9.270;2022-10-17T11:34:10;9.57;;;2.87;;
22193;SDS011;11262;50.308;9.270;2022-10-17T11:36:43;8.20;;;2.97;;
22193;SDS011;11262;50.308;9.270;2022-10-17T11:39:14;5.57;;;2.90;;
22193;SDS011;11262;50.308;9.270;2022-10-17T11:42:01;6.23;;;2.70;;
22193;SDS011;11262;50.308;9.270;2022-10-17T11:44:37;6.63;;;2.90;;
22193;SDS011;11262;50.308;9.270;2022-10-17T11:47:20;11.53;;;3.00;;
22193;SDS011;11262;50.308;9.270;2022-10-17T11:49:56;12.97;;;4.00;;
22193;SDS011;11262;50.308;9.270;2022-10-17T11:52:41;6.90;;;3.23;;
22193;SDS011;11262;50.308;9.270;2022-10-17T11:55:15;6.80;;;2.80;;
22193;SDS011;11262;50.308;9.270;2022-10-17T11:57:49;6.40;;;3.03;;
22193;SDS011;11262;50.308;9.270;2022-10-17T12:03:18;7.97;;;3.07;;
22193;SDS011;11262;50.308;9.270;2022-10-17T12:05:56;6.73;;;2.80;;
22193;SDS011;11262;50.308;9.270;2022-10-17T12:19:45;11.67;;;3.10;;
22193;SDS011;11262;50.308;9.270;2022-10-17T12:22:18;5.07;;;2.73;;
22193;SDS011;11262;50.308;9.270;2022-10-17T12:24:57;8.83;;;2.80;;
22193;SDS011;11262;50.308;9.270;2022-10-17T12:27:35;6.90;;;3.00;;
22193;SDS011;11262;50.308;9.270;2022-10-17T12:30:14;5.33;;;2.90;;
22193;SDS011;11262;50.308;9.270;2022-10-17T12:32:54;5.67;;;2.70;;
22193;SDS011;11262;50.308;9.270;2022-10-17T12:35:26;7.70;;;3.00;;
22193;SDS011;11262;50.308;9.270;2022-10-17T12:51:02;6.57;;;2.90;;
22193;SDS011;11262;50.308;9.270;2022-10-17T12:56:21;9.33;;;2.83;;
22193;SDS011;11262;50.308;9.270;2022-10-17T12:59:05;7.13;;;3.03;;
22193;SDS011;11262;50.308;9.270;2022-10-17T13:01:53;7.07;;;3.00;;
22193;SDS011;11262;50.308;9.270;2022-10-17T13:04:22;10.23;;;3.40;;
22193;SDS011;11262;50.308;9.270;2022-10-17T13:06:53;8.23;;;3.07;;
22193;SDS011;11262;50.308;9.270;2022-10-17T13:09:31;7.10;;;3.10;;
22193;SDS011;11262;50.308;9.270;2022-10-17T13:12:02;8.67;;;3.60;;
22193;SDS011;11262;50.308;9.270;2022-10-17T13:14:30;8.27;;;3.60;;
22193;SDS011;11262;50.308;9.270;2022-10-17T13:17:02;8.17;;;3.33;;
22193;SDS011;11262;50.308;9.270;2022-10-17T13:19:30;6.70;;;3.00;;
22193;SDS011;11262;50.308;9.270;2022-10-17T13:24:47;9.73;;;3.30;;
22193;SDS011;11262;50.308;9.270;2022-10-17T13:29:54;5.77;;;3.20;;
22193;SDS011;11262;50.308;9.270;2022-10-17T13:32:22;7.47;;;3.33;;
22193;SDS011;11262;50.308;9.270;2022-10-17T13:37:35;7.17;;;3.33;;
22193;SDS011;11262;50.308;9.270;2022-10-17T13:40:01;8.10;;;3.60;;
22193;SDS011;11262;50.308;9.270;2022-10-17T13:42:29;6.53;;;3.00;;
22193;SDS011;11262;50.308;9.270;2022-10-17T13:45:00;5.90;;;3.63;;
22193;SDS011;11262;50.308;9.270;2022-10-17T13:47:27;7.77;;;2.80;;
22193;SDS011;11262;50.308;9.270;2022-10-17T13:49:56;8.73;;;3.40;;
22193;SDS011;11262;50.308;9.270;2022-10-17T13:52:24;6.93;;;3.00;;
22193;SDS011;11262;50.308;9.270;2022-10-17T13:54:53;6.33;;;2.90;;
22193;SDS011;11262;50.308;9.270;2022-10-17T13:57:24;14.20;;;3.40;;
22193;SDS011;11262;50.308;9.270;2022-10-17T14:00:10;7.93;;;2.90;;
22193;SDS011;11262;50.308;9.270;2022-10-17T14:02:44;10.40;;;3.23;;
22193;SDS011;11262;50.308;9.270;2022-10-17T14:05:11;8.83;;;2.70;;
22193;SDS011;11262;50.308;9.270;2022-10-17T14:12:55;6.40;;;3.00;;
22193;SDS011;11262;50.308;9.270;2022-10-17T14:15:24;8.10;;;3.00;;
22193;SDS011;11262;50.308;9.270;2022-10-17T14:17:53;12.43;;;3.03;;
22193;SDS011;11262;50.308;9.270;2022-10-17T14:20:21;12.60;;;3.13;;
22193;SDS011;11262;50.308;9.270;2022-10-17T14:22:47;9.63;;;2.83;;
22193;SDS011;11262;50.308;9.270;2022-10-17T14:25:29;8.67;;;2.70;;
22193;SDS011;11262;50.308;9.270;2022-10-17T14:30:37;6.67;;;2.80;;
22193;SDS011;11262;50.308;9.270;2022-10-17T14:33:17;7.57;;;2.70;;
22193;SDS011;11262;50.308;9.270;2022-10-17T14:35:49;7.43;;;3.17;;
22193;SDS011;11262;50.308;9.270;2022-10-17T14:38:16;8.63;;;3.03;;
22193;SDS011;11262;50.308;9.270;2022-10-17T14:40:52;9.30;;;2.80;;
22193;SDS011;11262;50.308;9.270;2022-10-17T14:43:22;7.50;;;3.30;;
22193;SDS011;11262;50.308;9.270;2022-10-17T14:45:50;7.10;;;2.90;;
22193;SDS011;11262;50.308;9.270;2022-10-17T14:48:16;9.80;;;3.33;;
22193;SDS011;11262;50.308;9.270;2022-10-17T14:53:33;9.93;;;3.03;;
22193;SDS011;11262;50.308;9.270;2022-10-17T14:56:00;9.30;;;2.80;;
22193;SDS011;11262;50.308;9.270;2022-10-17T14:58:30;7.40;;;2.80;;
22193;SDS011;11262;50.308;9.270;2022-10-17T15:00:58;8.27;;;3.10;;
22193;SDS011;11262;50.308;9.270;2022-10-17T15:03:24;5.07;;;2.90;;
22193;SDS011;11262;50.308;9.270;2022-10-17T15:05:51;4.53;;;2.90;;
22193;SDS011;11262;50.308;9.270;2022-10-17T15:08:19;7.13;;;2.73;;
22193;SDS011;11262;50.308;9.270;2022-10-17T15:10:46;9.40;;;3.17;;
22193;SDS011;11262;50.308;9.270;2022-10-17T15:13:12;5.27;;;2.80;;
22193;SDS011;11262;50.308;9.270;2022-10-17T15:15:39;7.68;;;2.75;;
22193;SDS011;11262;50.308;9.270;2022-10-17T15:18:06;11.20;;;3.20;;
22193;SDS011;11262;50.308;9.270;2022-10-17T15:20:34;4.33;;;2.83;;
22193;SDS011;11262;50.308;9.270;2022-10-17T15:23:00;11.75;;;3.10;;
22193;SDS011;11262;50.308;9.270;2022-10-17T15:25:27;9.43;;;2.90;;
22193;SDS011;11262;50.308;9.270;2022-10-17T15:27:54;10.47;;;2.97;;
22193;SDS011;11262;50.308;9.270;2022-10-17T15:30:25;4.43;;;2.70;;
22193;SDS011;11262;50.308;9.270;2022-10-17T15:32:53;8.20;;;3.00;;
22193;SDS011;11262;50.308;9.270;2022-10-17T15:35:19;8.63;;;2.90;;
22193;SDS011;11262;50.308;9.270;2022-10-17T15:37:46;11.23;;;2.90;;
22193;SDS011;11262;50.308;9.270;2022-10-17T15:40:13;11.33;;;3.30;;
22193;SDS011;11262;50.308;9.270;2022-10-17T15:42:44;8.40;;;3.07;;
22193;SDS011;11262;50.308;9.270;2022-10-17T15:45:10;11.10;;;3.33;;
22193;SDS011;11262;50.308;9.270;2022-10-17T15:47:39;7.07;;;2.90;;
22193;SDS011;11262;50.308;9.270;2022-10-17T15:50:05;5.63;;;3.07;;
22193;SDS011;11262;50.308;9.270;2022-10-17T15:52:33;8.60;;;3.50;;
22193;SDS011;11262;50.308;9.270;2022-10-17T15:54:59;12.37;;;3.30;;
22193;SDS011;11262;50.308;9.270;2022-10-17T15:57:25;12.73;;;3.23;;
22193;SDS011;11262;50.308;9.270;2022-10-17T15:59:52;13.00;;;3.53;;
22193;SDS011;11262;50.308;9.270;2022-10-17T16:02:20;8.87;;;3.70;;
22193;SDS011;11262;50.308;9.270;2022-10-17T16:04:47;11.03;;;4.20;;
22193;SDS011;11262;50.308;9.270;2022-10-17T16:07:14;14.50;;;4.00;;
22193;SDS011;11262;50.308;9.270;2022-10-17T16:09:40;20.10;;;4.83;;
22193;SDS011;11262;50.308;9.270;2022-10-17T16:12:09;13.17;;;5.17;;
22193;SDS011;11262;50.308;9.270;2022-10-17T16:14:39;12.17;;;5.83;;
22193;SDS011;11262;50.308;9.270;2022-10-17T16:17:04;15.03;;;5.67;;
22193;SDS011;11262;50.308;9.270;2022-10-17T16:19:30;19.57;;;6.93;;
22193;SDS011;11262;50.308;9.270;2022-10-17T16:21:56;23.73;;;7.73;;
22193;SDS011;11262;50.308;9.270;2022-10-17T16:24:22;17.13;;;6.23;;
22193;SDS011;11262;50.308;9.270;2022-10-17T16:26:49;13.23;;;4.77;;
22193;SDS011;11262;50.308;9.270;2022-10-17T16:29:15;11.97;;;4.67;;
22193;SDS011;11262;50.308;9.270;2022-10-17T16:31:42;11.80;;;4.40;;
22193;SDS011;11262;50.308;9.270;2022-10-17T16:34:09;11.90;;;5.53;;
22193;SDS011;11262;50.308;9.270;2022-10-17T16:36:37;10.97;;;4.13;;
22193;SDS011;11262;50.308;9.270;2022-10-17T16:39:06;9.97;;;4.13;;
22193;SDS011;11262;50.308;9.270;2022-10-17T16:41:33;8.83;;;4.07;;
22193;SDS011;11262;50.308;9.270;2022-10-17T16:44:02;11.07;;;4.27;;
22193;SDS011;11262;50.308;9.270;2022-10-17T16:46:30;15.93;;;4.23;;
22193;SDS011;11262;50.308;9.270;2022-10-17T16:48:57;14.17;;;5.10;;
22193;SDS011;11262;50.308;9.270;2022-10-17T16:51:23;10.47;;;4.33;;
22193;SDS011;11262;50.308;9.270;2022-10-17T16:53:49;15.53;;;4.97;;
22193;SDS011;11262;50.308;9.270;2022-10-17T16:56:19;14.00;;;5.03;;
22193;SDS011;11262;50.308;9.270;2022-10-17T16:58:47;12.27;;;4.80;;
22193;SDS011;11262;50.308;9.270;2022-10-17T17:01:14;11.73;;;4.63;;
22193;SDS011;11262;50.308;9.270;2022-10-17T17:03:42;12.27;;;4.50;;
22193;SDS011;11262;50.308;9.270;2022-10-17T17:06:11;14.07;;;4.90;;
22193;SDS011;11262;50.308;9.270;2022-10-17T17:08:40;12.10;;;5.20;;